Pagrindinis puslapis
METAR-TAF:

METAR-TAF

Oro uostai :

Jakutskas, Rusija

platuma: 62-01N, ilguma: 129-43E, Aukštis: 103 m

Dabartinis oras

Ataskaita buvo paskelbta 41 minutes, ne 10:00 UTC
Vėjas 6 kt iš Rytų/Šiaurės Rytų
Temperatūra 13°C
Drėgmė 41%
Slėgis 1007 hPa
Matomumas 10 km arba daugiau
nėra debesų žemiau 1500 m ir nėra kamuolinių lietaus debesų

METAR: UEEE 311000Z 06003MPS CAVOK 13/M00 Q1007 R23L/09//60 NOSIG RMK QFE747

Laikas: 19:41 (10:41 UTC)

Prognozė

Ataskaita buvo paskelbta 2 valandos ir 41 minutes, ne 08:00 UTC
Prognozė galioja nuo 31 metu 09 UTC su 01 metu 15 UTC
Vėjas 6 kt iš Pietryčių su gūsio iki 16 kt
Matomumas 10 km arba daugiau
Išsisklaidę debesys ne aukštis 2500 ft, Liūtiniai kamuoliniai debesys.
Apsiniaukę ne aukštis 7000 ft
Laikinai
nuo 31 metu 09 UTC su 31 metu 15 UTC
lietus

TAF: UEEE 310800Z 3109/0115 14003G08MPS 9999 SCT025CB OVC070 TEMPO 3109/3115 -SHRA

Orai ataskaitas ir orų prognozės (METAR, TAF).

turimą stotys yra geltonos ir raudonos taškus žemėlapyje.

Perkelti pele per norėdami pamatyti stoties vardą.

Tada spustelėkite, norėdami matyti oro stebėjimo ir prognozės.

Norėdami pakeisti žemėlapį: spustelėkite ant žalios mygtukų su juodo kryžiaus žemyn,; žalią mygtuką su brūkšneliu, jei norite nutolinti; arba žalių rodyklių gretimoms žemėlapius.


METAR-TAF: